Time,TemperatureF,DewpointF,PressureIn,WindDirection,WindDirectionDegrees,WindSpeedMPH,WindSpeedGustMPH,Humidity,HourlyPrecipIn,Conditions,Clouds,dailyrainin,SoftwareType,DateUTC
2013-09-19 00:03:00,76.0,69.0,29.71,SSW,210,17.0,22.0,80,0.00,,,0.00,weatherlink.com 1.10,2013-09-19 05:03:00,
2013-09-19 00:18:00,75.5,69.0,29.71,South,172,6.0,22.0,81,0.00,,,0.00,weatherlink.com 1.10,2013-09-19 05:18:00,
2013-09-19 00:33:00,74.8,69.0,29.71,SE,139,8.0,20.0,83,0.00,,,0.00,weatherlink.com 1.10,2013-09-19 05:33:00,
2013-09-19 00:48:00,74.7,70.0,29.71,SW,236,15.0,17.0,84,0.00,,,0.00,weatherlink.com 1.10,2013-09-19 05:48:00,
2013-09-19 01:03:00,74.8,70.0,29.72,SSW,203,8.0,14.0,84,0.00,,,0.00,weatherlink.com 1.10,2013-09-19 06:03:00,
2013-09-19 01:18:00,74.5,70.0,29.71,South,187,9.0,15.0,85,0.00,,,0.00,weatherlink.com 1.10,2013-09-19 06:18:00,
2013-09-19 01:33:00,74.2,70.0,29.71,South,191,9.0,17.0,86,0.00,,,0.00,weatherlink.com 1.10,2013-09-19 06:33:00,
2013-09-19 01:48:00,73.8,70.0,29.71,SW,219,9.0,14.0,87,0.00,,,0.00,weatherlink.com 1.10,2013-09-19 06:48:00,
2013-09-19 02:03:00,73.3,70.0,29.71,SSW,203,10.0,16.0,88,0.00,,,0.00,weatherlink.com 1.10,2013-09-19 07:03:00,
2013-09-19 02:18:00,73.1,69.0,29.70,SE,136,8.0,15.0,88,0.00,,,0.00,weatherlink.com 1.10,2013-09-19 07:18:00,
2013-09-19 02:33:00,72.8,70.0,29.70,SSE,155,6.0,14.0,89,0.00,,,0.00,weatherlink.com 1.10,2013-09-19 07:33:00,
2013-09-19 02:48:00,72.4,69.0,29.70,SSE,167,11.0,12.0,90,0.00,,,0.00,weatherlink.com 1.10,2013-09-19 07:48:00,
2013-09-19 03:03:00,72.1,69.0,29.71,South,183,10.0,13.0,91,0.00,,,0.00,weatherlink.com 1.10,2013-09-19 08:03:00,
2013-09-19 03:18:00,72.0,69.0,29.70,SSE,162,6.0,13.0,91,0.00,,,0.00,weatherlink.com 1.10,2013-09-19 08:18:00,
2013-09-19 03:33:00,71.8,69.0,29.70,SSW,203,10.0,13.0,91,0.00,,,0.00,weatherlink.com 1.10,2013-09-19 08:33:00,
2013-09-19 03:48:00,71.5,69.0,29.69,SSW,194,9.0,14.0,92,0.00,,,0.00,weatherlink.com 1.10,2013-09-19 08:48:00,
2013-09-19 04:03:00,71.4,69.0,29.69,SSW,199,8.0,15.0,92,0.00,,,0.00,weatherlink.com 1.10,2013-09-19 09:03:00,
2013-09-19 04:19:00,71.2,69.0,29.68,SE,143,6.0,13.0,92,0.00,,,0.00,weatherlink.com 1.10,2013-09-19 09:19:00,
2013-09-19 04:34:00,71.1,69.0,29.67,South,174,7.0,14.0,92,0.00,,,0.00,weatherlink.com 1.10,2013-09-19 09:34:00,
2013-09-19 04:49:00,70.9,69.0,29.67,ESE,114,9.0,16.0,93,0.00,,,0.00,weatherlink.com 1.10,2013-09-19 09:49:00,
2013-09-19 05:04:00,70.8,68.0,29.67,South,186,9.0,16.0,92,0.00,,,0.00,weatherlink.com 1.10,2013-09-19 10:04:00,
2013-09-19 05:19:00,70.8,68.0,29.66,SSE,167,8.0,17.0,92,0.00,,,0.00,weatherlink.com 1.10,2013-09-19 10:19:00,
2013-09-19 05:34:00,70.6,68.0,29.66,SSW,198,8.0,16.0,92,0.00,,,0.00,weatherlink.com 1.10,2013-09-19 10:34:00,
2013-09-19 05:49:00,70.6,68.0,29.66,SSE,167,7.0,13.0,92,0.00,,,0.00,weatherlink.com 1.10,2013-09-19 10:49:00,
2013-09-19 06:04:00,70.5,68.0,29.67,South,179,6.0,12.0,92,0.00,,,0.00,weatherlink.com 1.10,2013-09-19 11:04:00,
2013-09-19 06:19:00,70.5,68.0,29.68,South,184,6.0,9.0,91,0.00,,,0.00,weatherlink.com 1.10,2013-09-19 11:19:00,
2013-09-19 06:34:00,70.4,68.0,29.69,SSE,162,4.0,8.0,91,0.00,,,0.00,weatherlink.com 1.10,2013-09-19 11:34:00,
2013-09-19 06:49:00,70.2,68.0,29.70,South,174,4.0,6.0,91,0.00,,,0.00,weatherlink.com 1.10,2013-09-19 11:49:00,
2013-09-19 07:04:00,70.4,67.0,29.70,SSE,160,7.0,7.0,90,0.00,,,0.00,weatherlink.com 1.10,2013-09-19 12:04:00,
2013-09-19 07:19:00,69.9,67.0,29.69,ESE,122,2.0,5.0,90,0.00,,,0.00,weatherlink.com 1.10,2013-09-19 12:19:00,
2013-09-19 07:34:00,69.6,67.0,29.68,SE,127,5.0,9.0,92,0.00,,,0.00,weatherlink.com 1.10,2013-09-19 12:34:00,
2013-09-19 07:49:00,71.0,68.0,29.68,SSE,148,7.0,11.0,89,0.00,,,0.00,weatherlink.com 1.10,2013-09-19 12:49:00,
2013-09-19 08:04:00,72.3,69.0,29.67,SSE,151,7.0,11.0,88,0.00,,,0.00,weatherlink.com 1.10,2013-09-19 13:04:00,
2013-09-19 08:19:00,72.7,68.0,29.68,SW,226,11.0,12.0,86,0.00,,,0.00,weatherlink.com 1.10,2013-09-19 13:19:00,
2013-09-19 08:34:00,72.4,68.0,29.67,South,178,6.0,11.0,87,0.00,,,0.00,weatherlink.com 1.10,2013-09-19 13:34:00,
2013-09-19 08:49:00,72.7,69.0,29.67,South,188,7.0,13.0,87,0.00,,,0.00,weatherlink.com 1.10,2013-09-19 13:49:00,
2013-09-19 09:04:00,73.4,69.0,29.67,SSW,201,12.0,14.0,85,0.00,,,0.00,weatherlink.com 1.10,2013-09-19 14:04:00,
2013-09-19 09:19:00,74.8,69.0,29.69,SSW,208,17.0,17.0,83,0.00,,,0.00,weatherlink.com 1.10,2013-09-19 14:19:00,
2013-09-19 09:34:00,75.5,69.0,29.67,SSW,195,14.0,20.0,80,0.00,,,0.00,weatherlink.com 1.10,2013-09-19 14:34:00,
2013-09-19 09:49:00,75.8,68.0,29.68,SW,221,16.0,24.0,77,0.00,,,0.00,weatherlink.com 1.10,2013-09-19 14:49:00,
2013-09-19 10:04:00,76.3,67.0,29.70,WSW,237,25.0,27.0,74,0.00,,,0.00,weatherlink.com 1.10,2013-09-19 15:04:00,
2013-09-19 10:20:00,76.2,68.0,29.72,WSW,241,15.0,24.0,75,0.00,,,0.00,weatherlink.com 1.10,2013-09-19 15:20:00,
2013-09-19 10:34:00,76.4,68.0,29.72,SW,229,11.0,26.0,74,0.00,,,0.00,weatherlink.com 1.10,2013-09-19 15:34:00,
2013-09-19 10:49:00,77.2,69.0,29.73,SW,230,12.0,17.0,75,0.00,,,0.00,weatherlink.com 1.10,2013-09-19 15:49:00,
2013-09-19 11:04:00,78.6,69.0,29.73,West,267,6.0,17.0,72,0.00,,,0.00,weatherlink.com 1.10,2013-09-19 16:04:00,
2013-09-19 11:19:00,79.4,69.0,29.73,WNW,301,3.0,10.0,70,0.00,,,0.00,weatherlink.com 1.10,2013-09-19 16:19:00,
2013-09-19 11:34:00,80.1,69.0,29.72,WNW,288,1.0,13.0,68,0.00,,,0.00,weatherlink.com 1.10,2013-09-19 16:34:00,
2013-09-19 11:49:00,80.4,68.0,29.71,West,263,6.0,8.0,67,0.00,,,0.00,weatherlink.com 1.10,2013-09-19 16:49:00,
2013-09-19 12:04:00,80.6,69.0,29.72,SW,229,8.0,13.0,67,0.00,,,0.00,weatherlink.com 1.10,2013-09-19 17:04:00,
2013-09-19 12:19:00,80.3,68.0,29.73,West,278,4.0,8.0,67,0.00,,,0.00,weatherlink.com 1.10,2013-09-19 17:19:00,
2013-09-19 12:34:00,80.3,67.0,29.73,WNW,289,5.0,15.0,64,0.00,,,0.00,weatherlink.com 1.10,2013-09-19 17:34:00,
2013-09-19 12:49:00,79.8,67.0,29.75,West,277,9.0,16.0,64,0.00,,,0.00,weatherlink.com 1.10,2013-09-19 17:49:00,
2013-09-19 13:04:00,77.9,66.0,29.77,WNW,293,8.0,24.0,67,0.00,,,0.00,weatherlink.com 1.10,2013-09-19 18:04:00,
2013-09-19 13:19:00,77.2,66.0,29.77,SW,230,19.0,24.0,68,0.00,,,0.00,weatherlink.com 1.10,2013-09-19 18:19:00,
2013-09-19 13:34:00,77.4,66.0,29.76,SW,234,20.0,25.0,69,0.00,,,0.00,weatherlink.com 1.10,2013-09-19 18:34:00,
2013-09-19 13:50:00,76.5,67.0,29.76,West,278,9.0,24.0,72,0.00,,,0.00,weatherlink.com 1.10,2013-09-19 18:50:00,
2013-09-19 14:05:00,74.9,67.0,29.74,WSW,248,6.0,13.0,75,0.00,,,0.00,weatherlink.com 1.10,2013-09-19 19:05:00,
2013-09-19 14:20:00,76.2,67.0,29.71,WNW,286,4.0,4.0,74,0.00,,,0.00,weatherlink.com 1.10,2013-09-19 19:20:00,
2013-09-19 14:35:00,76.7,67.0,29.72,West,266,1.0,9.0,73,0.00,,,0.00,weatherlink.com 1.10,2013-09-19 19:35:00,
2013-09-19 15:05:00,78.6,68.0,29.70,WNW,300,3.0,6.0,69,0.00,,,0.00,weatherlink.com 1.10,2013-09-19 20:05:00,
2013-09-19 15:20:00,78.6,67.0,29.71,SSW,198,3.0,13.0,67,0.00,,,0.00,weatherlink.com 1.10,2013-09-19 20:20:00,
2013-09-19 15:35:00,78.0,67.0,29.71,NW,309,4.0,9.0,69,0.00,,,0.00,weatherlink.com 1.10,2013-09-19 20:35:00,
2013-09-19 15:50:00,77.2,68.0,29.72,WNW,295,4.0,10.0,72,0.00,,,0.00,weatherlink.com 1.10,2013-09-19 20:50:00,
2013-09-19 16:20:00,74.9,66.0,29.74,WNW,300,4.0,10.0,74,0.00,,,0.00,weatherlink.com 1.10,2013-09-19 21:20:00,
2013-09-19 16:35:00,73.9,66.0,29.73,NW,318,6.0,6.0,76,0.00,,,0.00,weatherlink.com 1.10,2013-09-19 21:35:00,
2013-09-19 16:50:00,73.2,65.0,29.73,NW,307,3.0,6.0,76,0.00,,,0.00,weatherlink.com 1.10,2013-09-19 21:50:00,
2013-09-19 17:05:00,72.5,66.0,29.73,WNW,297,3.0,7.0,79,0.00,,,0.00,weatherlink.com 1.10,2013-09-19 22:05:00,
2013-09-19 17:20:00,71.8,66.0,29.76,WNW,286,1.0,3.0,81,0.00,,,0.00,weatherlink.com 1.10,2013-09-19 22:20:00,
2013-09-19 17:35:00,71.3,66.0,29.76,WNW,291,1.0,2.0,82,0.00,,,0.00,weatherlink.com 1.10,2013-09-19 22:35:00,
2013-09-19 17:50:00,70.1,66.0,29.76,WNW,282,1.0,2.0,86,0.00,,,0.00,weatherlink.com 1.10,2013-09-19 22:50:00,
2013-09-19 18:05:00,69.0,66.0,29.75,WNW,293,1.0,1.0,90,0.02,,,0.02,weatherlink.com 1.10,2013-09-19 23:05:00,
2013-09-19 18:20:00,68.6,66.0,29.76,WNW,283,0.0,2.0,90,0.02,,,0.02,weatherlink.com 1.10,2013-09-19 23:20:00,
2013-09-19 18:35:00,68.5,66.0,29.76,WNW,290,1.0,2.0,91,0.03,,,0.03,weatherlink.com 1.10,2013-09-19 23:35:00,
2013-09-19 18:50:00,68.1,66.0,29.75,NW,314,2.0,3.0,92,0.05,,,0.05,weatherlink.com 1.10,2013-09-19 23:50:00,
2013-09-19 19:20:00,67.9,66.0,29.75,NW,324,4.0,7.0,93,0.04,,,0.06,weatherlink.com 1.10,2013-09-20 00:20:00,
2013-09-19 19:35:00,67.7,66.0,29.76,WNW,285,2.0,7.0,93,0.03,,,0.06,weatherlink.com 1.10,2013-09-20 00:35:00,
2013-09-19 19:50:00,67.6,66.0,29.76,NW,320,5.0,6.0,93,0.01,,,0.06,weatherlink.com 1.10,2013-09-20 00:50:00,
2013-09-19 20:05:00,67.8,66.0,29.76,NNW,338,5.0,6.0,92,0.00,,,0.06,weatherlink.com 1.10,2013-09-20 01:05:00,
2013-09-19 20:20:00,67.5,65.0,29.77,NW,323,5.0,5.0,92,0.00,,,0.06,weatherlink.com 1.10,2013-09-20 01:20:00,
2013-09-19 20:35:00,67.3,64.0,29.77,NW,321,5.0,7.0,90,0.00,,,0.06,weatherlink.com 1.10,2013-09-20 01:35:00,
2013-09-19 20:50:00,66.9,64.0,29.78,NW,323,3.0,6.0,90,0.00,,,0.06,weatherlink.com 1.10,2013-09-20 01:50:00,
2013-09-19 21:05:00,66.0,64.0,29.79,NW,308,2.0,6.0,92,0.00,,,0.06,weatherlink.com 1.10,2013-09-20 02:05:00,
2013-09-19 21:20:00,64.9,63.0,29.80,WNW,299,2.0,2.0,93,0.00,,,0.06,weatherlink.com 1.10,2013-09-20 02:20:00,
2013-09-19 21:35:00,64.2,63.0,29.80,WNW,299,1.0,2.0,94,0.00,,,0.06,weatherlink.com 1.10,2013-09-20 02:35:00,
2013-09-19 21:50:00,63.8,62.0,29.81,NW,304,1.0,2.0,95,0.00,,,0.06,weatherlink.com 1.10,2013-09-20 02:50:00,
2013-09-19 22:05:00,63.9,63.0,29.83,WNW,296,1.0,1.0,95,0.00,,,0.06,weatherlink.com 1.10,2013-09-20 03:05:00,
2013-09-19 22:20:00,64.3,63.0,29.84,WNW,303,0.0,3.0,94,0.00,,,0.06,weatherlink.com 1.10,2013-09-20 03:20:00,
2013-09-19 22:35:00,64.2,61.0,29.84,WNW,303,2.0,3.0,90,0.00,,,0.06,weatherlink.com 1.10,2013-09-20 03:35:00,
2013-09-19 22:50:00,63.5,60.0,29.84,WNW,298,3.0,4.0,89,0.00,,,0.06,weatherlink.com 1.10,2013-09-20 03:50:00,
2013-09-19 23:05:00,62.6,58.0,29.84,NW,308,4.0,5.0,86,0.00,,,0.06,weatherlink.com 1.10,2013-09-20 04:05:00,
2013-09-19 23:20:00,61.6,57.0,29.82,NW,326,4.0,7.0,86,0.00,,,0.06,weatherlink.com 1.10,2013-09-20 04:20:00,
2013-09-19 23:35:00,61.0,56.0,29.83,NW,314,4.0,6.0,84,0.00,,,0.06,weatherlink.com 1.10,2013-09-20 04:35:00,
2013-09-19 23:51:00,60.3,56.0,29.84,WNW,302,3.0,5.0,85,0.00,,,0.06,weatherlink.com 1.10,2013-09-20 04:51:00,